KLEW

Auburn / Lewiston Municipal Airport

Auburn/Lewiston, Maine, USA
METAR KLEW 212256Z AUTO 15006KT 10SM 19/15 A3004 RMK AO2 SLP187 T01940150 $
Observed Flight Rules
Aug-21 @ 22:56 UTC (49 minutes ago)
Wind Visibility
150° at 6 knots 10 miles
Temperatures Readings
Current 19°C / 66°F
Dewpoint 15°C / 59°F
Humidity 78%
Altimeter 30.04" Hg
Pressure 1018.7 hPa
Elevation 88
METAR KLEW 212256Z AUTO 15006KT 10SM 19/15 A3004 RMK AO2 SLP187 T01940150 $
Observed Flight Rules
Aug-21 @ 22:56 UTC
(49 minutes ago)
Wind Visibility
150° at 6 knots 10 miles
Temperature Dewpoint
19°C / 66°F 15°C / 59°F
Humidity Altimeter Pressure
78% 30.04" Hg 1018.7 hPa